sensor_id;sensor_type;location;lat;lon;timestamp;temperature;humidity
22779;DHT22;11556;51.194;3.800;2023-03-07T00:01:56;7.10;99.90
22779;DHT22;11556;51.194;3.800;2023-03-07T00:04:21;7.10;99.90
22779;DHT22;11556;51.194;3.800;2023-03-07T00:06:47;7.20;99.90
22779;DHT22;11556;51.194;3.800;2023-03-07T00:09:13;7.10;99.90
22779;DHT22;11556;51.194;3.800;2023-03-07T00:11:38;7.10;99.90
22779;DHT22;11556;51.194;3.800;2023-03-07T00:14:07;7.10;99.90
22779;DHT22;11556;51.194;3.800;2023-03-07T00:16:33;7.10;99.90
22779;DHT22;11556;51.194;3.800;2023-03-07T00:18:58;7.10;99.90
22779;DHT22;11556;51.194;3.800;2023-03-07T00:21:24;7.00;99.90
22779;DHT22;11556;51.194;3.800;2023-03-07T00:23:55;7.10;99.90
22779;DHT22;11556;51.194;3.800;2023-03-07T00:26:22;7.20;99.90
22779;DHT22;11556;51.194;3.800;2023-03-07T00:28:48;7.20;99.90
22779;DHT22;11556;51.194;3.800;2023-03-07T00:31:14;7.10;99.90
22779;DHT22;11556;51.194;3.800;2023-03-07T00:33:39;7.10;99.90
22779;DHT22;11556;51.194;3.800;2023-03-07T00:36:06;7.10;99.90
22779;DHT22;11556;51.194;3.800;2023-03-07T00:38:32;7.00;99.90
22779;DHT22;11556;51.194;3.800;2023-03-07T00:40:58;7.10;99.90
22779;DHT22;11556;51.194;3.800;2023-03-07T00:43:25;7.10;99.90
22779;DHT22;11556;51.194;3.800;2023-03-07T00:45:50;7.10;99.90
22779;DHT22;11556;51.194;3.800;2023-03-07T00:48:16;7.10;99.90
22779;DHT22;11556;51.194;3.800;2023-03-07T00:50:42;7.10;99.90
22779;DHT22;11556;51.194;3.800;2023-03-07T00:53:08;7.10;99.90
22779;DHT22;11556;51.194;3.800;2023-03-07T00:55:33;7.10;99.90
22779;DHT22;11556;51.194;3.800;2023-03-07T00:57:59;7.10;99.90
22779;DHT22;11556;51.194;3.800;2023-03-07T01:00:24;7.10;99.90
22779;DHT22;11556;51.194;3.800;2023-03-07T01:02:50;7.10;99.90
22779;DHT22;11556;51.194;3.800;2023-03-07T01:05:16;7.10;99.90
22779;DHT22;11556;51.194;3.800;2023-03-07T01:07:41;7.10;99.90
22779;DHT22;11556;51.194;3.800;2023-03-07T01:10:07;7.20;99.90
22779;DHT22;11556;51.194;3.800;2023-03-07T01:12:32;7.20;99.90
22779;DHT22;11556;51.194;3.800;2023-03-07T01:14:58;7.20;99.90
22779;DHT22;11556;51.194;3.800;2023-03-07T01:17:23;7.30;99.90
22779;DHT22;11556;51.194;3.800;2023-03-07T01:19:49;7.20;99.90
22779;DHT22;11556;51.194;3.800;2023-03-07T01:22:14;7.20;99.90
22779;DHT22;11556;51.194;3.800;2023-03-07T01:24:40;7.20;99.90
22779;DHT22;11556;51.194;3.800;2023-03-07T01:27:05;7.30;99.90
22779;DHT22;11556;51.194;3.800;2023-03-07T01:29:31;7.30;99.90
22779;DHT22;11556;51.194;3.800;2023-03-07T01:31:56;7.30;99.90
22779;DHT22;11556;51.194;3.800;2023-03-07T01:34:22;7.40;99.90
22779;DHT22;11556;51.194;3.800;2023-03-07T01:36:48;7.40;99.90
22779;DHT22;11556;51.194;3.800;2023-03-07T01:39:14;7.30;99.90
22779;DHT22;11556;51.194;3.800;2023-03-07T01:41:41;7.30;99.90
22779;DHT22;11556;51.194;3.800;2023-03-07T01:44:12;7.30;99.90
22779;DHT22;11556;51.194;3.800;2023-03-07T01:49:12;7.20;99.90
22779;DHT22;11556;51.194;3.800;2023-03-07T01:51:40;7.20;99.90
22779;DHT22;11556;51.194;3.800;2023-03-07T01:54:07;7.20;99.90
22779;DHT22;11556;51.194;3.800;2023-03-07T01:56:33;7.20;99.90
22779;DHT22;11556;51.194;3.800;2023-03-07T01:59:00;7.20;99.90
22779;DHT22;11556;51.194;3.800;2023-03-07T02:01:26;7.10;99.90
22779;DHT22;11556;51.194;3.800;2023-03-07T02:04:02;7.20;99.90
22779;DHT22;11556;51.194;3.800;2023-03-07T02:06:30;7.20;99.90
22779;DHT22;11556;51.194;3.800;2023-03-07T02:08:58;7.20;99.90
22779;DHT22;11556;51.194;3.800;2023-03-07T02:11:24;7.20;99.90
22779;DHT22;11556;51.194;3.800;2023-03-07T02:13:50;7.30;99.90
22779;DHT22;11556;51.194;3.800;2023-03-07T02:16:16;7.20;99.90
22779;DHT22;11556;51.194;3.800;2023-03-07T02:18:42;7.20;99.90
22779;DHT22;11556;51.194;3.800;2023-03-07T02:28:45;7.20;99.90
22779;DHT22;11556;51.194;3.800;2023-03-07T02:31:12;7.20;99.90
22779;DHT22;11556;51.194;3.800;2023-03-07T02:33:38;7.20;99.90
22779;DHT22;11556;51.194;3.800;2023-03-07T02:36:07;7.20;99.90
22779;DHT22;11556;51.194;3.800;2023-03-07T02:38:33;7.20;99.90
22779;DHT22;11556;51.194;3.800;2023-03-07T02:41:02;7.20;99.90
22779;DHT22;11556;51.194;3.800;2023-03-07T02:43:28;7.20;99.90
22779;DHT22;11556;51.194;3.800;2023-03-07T02:45:53;7.30;99.90
22779;DHT22;11556;51.194;3.800;2023-03-07T02:48:19;7.20;99.90
22779;DHT22;11556;51.194;3.800;2023-03-07T02:50:46;7.30;99.90
22779;DHT22;11556;51.194;3.800;2023-03-07T02:53:12;7.20;99.90
22779;DHT22;11556;51.194;3.800;2023-03-07T02:55:37;7.20;99.90
22779;DHT22;11556;51.194;3.800;2023-03-07T02:58:03;7.30;99.90
22779;DHT22;11556;51.194;3.800;2023-03-07T03:00:28;7.20;99.90
22779;DHT22;11556;51.194;3.800;2023-03-07T03:02:54;7.20;99.90
22779;DHT22;11556;51.194;3.800;2023-03-07T03:05:19;7.20;99.90
22779;DHT22;11556;51.194;3.800;2023-03-07T03:07:45;7.20;99.90
22779;DHT22;11556;51.194;3.800;2023-03-07T03:10:10;7.30;99.90
22779;DHT22;11556;51.194;3.800;2023-03-07T03:12:36;7.30;99.90
22779;DHT22;11556;51.194;3.800;2023-03-07T03:15:01;7.30;99.90
22779;DHT22;11556;51.194;3.800;2023-03-07T03:17:27;7.40;99.90
22779;DHT22;11556;51.194;3.800;2023-03-07T03:19:53;7.40;99.90
22779;DHT22;11556;51.194;3.800;2023-03-07T03:22:18;7.40;99.90
22779;DHT22;11556;51.194;3.800;2023-03-07T03:24:44;7.30;99.90
22779;DHT22;11556;51.194;3.800;2023-03-07T03:27:10;7.40;99.90
22779;DHT22;11556;51.194;3.800;2023-03-07T03:29:35;7.20;99.90
22779;DHT22;11556;51.194;3.800;2023-03-07T03:32:01;7.20;99.90
22779;DHT22;11556;51.194;3.800;2023-03-07T03:34:27;7.30;99.90
22779;DHT22;11556;51.194;3.800;2023-03-07T03:36:52;7.30;99.90
22779;DHT22;11556;51.194;3.800;2023-03-07T03:39:18;7.20;99.90
22779;DHT22;11556;51.194;3.800;2023-03-07T03:41:44;7.20;99.90
22779;DHT22;11556;51.194;3.800;2023-03-07T03:44:09;7.20;99.90
22779;DHT22;11556;51.194;3.800;2023-03-07T03:46:35;7.20;99.90
22779;DHT22;11556;51.194;3.800;2023-03-07T03:49:00;7.20;99.90
22779;DHT22;11556;51.194;3.800;2023-03-07T03:51:26;7.30;99.90
22779;DHT22;11556;51.194;3.800;2023-03-07T03:53:52;7.30;99.90
22779;DHT22;11556;51.194;3.800;2023-03-07T03:56:19;7.20;99.90
22779;DHT22;11556;51.194;3.800;2023-03-07T03:58:48;7.20;99.90
22779;DHT22;11556;51.194;3.800;2023-03-07T04:01:15;7.20;99.90
22779;DHT22;11556;51.194;3.800;2023-03-07T04:03:43;7.30;99.90
22779;DHT22;11556;51.194;3.800;2023-03-07T04:06:10;7.20;99.90
22779;DHT22;11556;51.194;3.800;2023-03-07T04:08:36;7.20;99.90
22779;DHT22;11556;51.194;3.800;2023-03-07T04:11:02;7.20;99.90
22779;DHT22;11556;51.194;3.800;2023-03-07T04:13:30;7.10;99.90
22779;DHT22;11556;51.194;3.800;2023-03-07T04:15:55;7.20;99.90
22779;DHT22;11556;51.194;3.800;2023-03-07T04:18:21;7.20;99.90
22779;DHT22;11556;51.194;3.800;2023-03-07T04:20:47;7.20;99.90
22779;DHT22;11556;51.194;3.800;2023-03-07T04:23:14;7.20;99.90
22779;DHT22;11556;51.194;3.800;2023-03-07T04:25:40;7.20;99.90
22779;DHT22;11556;51.194;3.800;2023-03-07T04:28:05;7.20;99.90
22779;DHT22;11556;51.194;3.800;2023-03-07T04:30:31;7.20;99.90
22779;DHT22;11556;51.194;3.800;2023-03-07T04:32:56;7.10;99.90
22779;DHT22;11556;51.194;3.800;2023-03-07T04:35:22;7.10;99.90
22779;DHT22;11556;51.194;3.800;2023-03-07T04:37:47;7.10;99.90
22779;DHT22;11556;51.194;3.800;2023-03-07T04:40:14;7.20;99.90
22779;DHT22;11556;51.194;3.800;2023-03-07T04:42:40;7.20;99.90
22779;DHT22;11556;51.194;3.800;2023-03-07T04:45:06;7.20;99.90
22779;DHT22;11556;51.194;3.800;2023-03-07T04:47:31;7.20;99.90
22779;DHT22;11556;51.194;3.800;2023-03-07T04:49:57;7.20;99.90
22779;DHT22;11556;51.194;3.800;2023-03-07T04:52:22;7.20;99.90
22779;DHT22;11556;51.194;3.800;2023-03-07T04:54:48;7.20;99.90
22779;DHT22;11556;51.194;3.800;2023-03-07T04:57:13;7.20;99.90
22779;DHT22;11556;51.194;3.800;2023-03-07T04:59:38;7.20;99.90
22779;DHT22;11556;51.194;3.800;2023-03-07T05:02:08;7.20;99.90
22779;DHT22;11556;51.194;3.800;2023-03-07T05:04:35;7.30;99.90
22779;DHT22;11556;51.194;3.800;2023-03-07T05:07:01;7.30;99.90
22779;DHT22;11556;51.194;3.800;2023-03-07T05:09:26;7.20;99.90
22779;DHT22;11556;51.194;3.800;2023-03-07T05:11:52;7.20;99.90
22779;DHT22;11556;51.194;3.800;2023-03-07T05:14:17;7.30;99.90
22779;DHT22;11556;51.194;3.800;2023-03-07T05:16:43;7.20;99.90
22779;DHT22;11556;51.194;3.800;2023-03-07T05:19:08;7.20;99.90
22779;DHT22;11556;51.194;3.800;2023-03-07T05:21:34;7.10;99.90
22779;DHT22;11556;51.194;3.800;2023-03-07T05:24:00;7.00;99.90
22779;DHT22;11556;51.194;3.800;2023-03-07T05:26:25;7.00;99.90
22779;DHT22;11556;51.194;3.800;2023-03-07T05:28:51;7.00;99.90
22779;DHT22;11556;51.194;3.800;2023-03-07T05:31:16;6.90;99.90
22779;DHT22;11556;51.194;3.800;2023-03-07T05:33:42;7.00;99.90
22779;DHT22;11556;51.194;3.800;2023-03-07T05:36:07;7.00;99.90
22779;DHT22;11556;51.194;3.800;2023-03-07T05:38:33;6.90;99.90
22779;DHT22;11556;51.194;3.800;2023-03-07T05:40:59;6.90;99.90
22779;DHT22;11556;51.194;3.800;2023-03-07T05:43:24;7.00;99.90
22779;DHT22;11556;51.194;3.800;2023-03-07T05:45:50;7.00;99.90
22779;DHT22;11556;51.194;3.800;2023-03-07T05:48:15;7.10;99.90
22779;DHT22;11556;51.194;3.800;2023-03-07T05:50:41;7.10;99.90
22779;DHT22;11556;51.194;3.800;2023-03-07T05:53:07;7.10;99.90
22779;DHT22;11556;51.194;3.800;2023-03-07T05:55:32;7.20;99.90
22779;DHT22;11556;51.194;3.800;2023-03-07T05:57:59;7.10;99.90
22779;DHT22;11556;51.194;3.800;2023-03-07T06:00:24;7.20;99.90
22779;DHT22;11556;51.194;3.800;2023-03-07T06:02:50;7.20;99.90
22779;DHT22;11556;51.194;3.800;2023-03-07T06:05:15;7.20;99.90
22779;DHT22;11556;51.194;3.800;2023-03-07T06:07:41;7.20;99.90
22779;DHT22;11556;51.194;3.800;2023-03-07T06:10:06;7.20;99.90
22779;DHT22;11556;51.194;3.800;2023-03-07T06:12:32;7.20;99.90
22779;DHT22;11556;51.194;3.800;2023-03-07T06:14:57;7.20;99.90
22779;DHT22;11556;51.194;3.800;2023-03-07T06:17:23;7.10;99.90
22779;DHT22;11556;51.194;3.800;2023-03-07T06:19:48;7.10;99.90
22779;DHT22;11556;51.194;3.800;2023-03-07T06:22:14;7.10;99.90
22779;DHT22;11556;51.194;3.800;2023-03-07T06:24:40;7.20;99.90
22779;DHT22;11556;51.194;3.800;2023-03-07T06:27:05;7.30;99.90
22779;DHT22;11556;51.194;3.800;2023-03-07T06:29:31;7.30;99.90
22779;DHT22;11556;51.194;3.800;2023-03-07T06:31:56;7.30;99.90
22779;DHT22;11556;51.194;3.800;2023-03-07T06:34:22;7.30;99.90
22779;DHT22;11556;51.194;3.800;2023-03-07T06:36:47;7.20;99.90
22779;DHT22;11556;51.194;3.800;2023-03-07T06:39:13;7.20;99.90
22779;DHT22;11556;51.194;3.800;2023-03-07T06:41:41;7.30;99.90
22779;DHT22;11556;51.194;3.800;2023-03-07T06:44:06;7.30;99.90
22779;DHT22;11556;51.194;3.800;2023-03-07T06:46:32;7.40;99.90
22779;DHT22;11556;51.194;3.800;2023-03-07T06:48:57;7.40;99.90
22779;DHT22;11556;51.194;3.800;2023-03-07T06:51:23;7.60;99.90
22779;DHT22;11556;51.194;3.800;2023-03-07T06:53:48;7.50;99.90
22779;DHT22;11556;51.194;3.800;2023-03-07T06:56:14;7.40;99.90
22779;DHT22;11556;51.194;3.800;2023-03-07T06:58:39;7.50;99.90
22779;DHT22;11556;51.194;3.800;2023-03-07T07:01:05;7.50;99.90
22779;DHT22;11556;51.194;3.800;2023-03-07T07:03:30;7.50;99.90
22779;DHT22;11556;51.194;3.800;2023-03-07T07:05:56;7.40;99.90
22779;DHT22;11556;51.194;3.800;2023-03-07T07:08:21;7.50;99.90
22779;DHT22;11556;51.194;3.800;2023-03-07T07:10:47;7.50;99.90
22779;DHT22;11556;51.194;3.800;2023-03-07T07:13:12;7.50;99.90
22779;DHT22;11556;51.194;3.800;2023-03-07T07:15:38;7.60;99.90
22779;DHT22;11556;51.194;3.800;2023-03-07T07:18:03;7.60;99.90
22779;DHT22;11556;51.194;3.800;2023-03-07T07:20:29;7.60;99.90
22779;DHT22;11556;51.194;3.800;2023-03-07T07:22:54;7.60;99.90
22779;DHT22;11556;51.194;3.800;2023-03-07T07:25:20;7.60;99.90
22779;DHT22;11556;51.194;3.800;2023-03-07T07:27:45;7.60;99.90
22779;DHT22;11556;51.194;3.800;2023-03-07T07:30:11;7.60;99.90
22779;DHT22;11556;51.194;3.800;2023-03-07T07:32:38;7.60;99.90
22779;DHT22;11556;51.194;3.800;2023-03-07T07:35:03;7.70;99.90
22779;DHT22;11556;51.194;3.800;2023-03-07T07:37:29;7.50;99.90
22779;DHT22;11556;51.194;3.800;2023-03-07T07:39:54;7.60;99.90
22779;DHT22;11556;51.194;3.800;2023-03-07T07:42:20;7.50;99.90
22779;DHT22;11556;51.194;3.800;2023-03-07T07:44:45;7.60;99.90
22779;DHT22;11556;51.194;3.800;2023-03-07T07:47:12;7.70;99.90
22779;DHT22;11556;51.194;3.800;2023-03-07T07:49:38;7.80;99.90
22779;DHT22;11556;51.194;3.800;2023-03-07T07:52:03;7.80;99.90
22779;DHT22;11556;51.194;3.800;2023-03-07T07:54:29;7.80;99.90
22779;DHT22;11556;51.194;3.800;2023-03-07T07:56:54;7.70;99.90
22779;DHT22;11556;51.194;3.800;2023-03-07T07:59:22;7.80;99.90
22779;DHT22;11556;51.194;3.800;2023-03-07T08:01:48;7.70;99.90
22779;DHT22;11556;51.194;3.800;2023-03-07T08:04:13;7.60;99.90
22779;DHT22;11556;51.194;3.800;2023-03-07T08:06:38;7.60;99.90
22779;DHT22;11556;51.194;3.800;2023-03-07T08:09:04;7.70;99.90
22779;DHT22;11556;51.194;3.800;2023-03-07T08:11:29;7.70;99.90
22779;DHT22;11556;51.194;3.800;2023-03-07T08:13:55;7.70;99.90
22779;DHT22;11556;51.194;3.800;2023-03-07T08:16:21;7.70;99.90
22779;DHT22;11556;51.194;3.800;2023-03-07T08:18:51;7.70;99.90
22779;DHT22;11556;51.194;3.800;2023-03-07T08:21:17;7.60;99.90
22779;DHT22;11556;51.194;3.800;2023-03-07T08:23:43;7.60;99.90
22779;DHT22;11556;51.194;3.800;2023-03-07T08:26:08;7.60;99.90
22779;DHT22;11556;51.194;3.800;2023-03-07T08:28:35;7.60;99.90
22779;DHT22;11556;51.194;3.800;2023-03-07T08:31:11;7.50;99.90
22779;DHT22;11556;51.194;3.800;2023-03-07T08:33:38;7.40;99.90
22779;DHT22;11556;51.194;3.800;2023-03-07T08:36:03;7.40;99.90
22779;DHT22;11556;51.194;3.800;2023-03-07T08:38:29;7.40;99.90
22779;DHT22;11556;51.194;3.800;2023-03-07T08:40:59;7.60;99.90
22779;DHT22;11556;51.194;3.800;2023-03-07T08:43:25;7.70;99.90
22779;DHT22;11556;51.194;3.800;2023-03-07T08:45:50;7.80;99.90
22779;DHT22;11556;51.194;3.800;2023-03-07T08:48:17;7.60;99.90
22779;DHT22;11556;51.194;3.800;2023-03-07T08:50:43;7.70;99.90
22779;DHT22;11556;51.194;3.800;2023-03-07T08:53:09;7.70;99.90
22779;DHT22;11556;51.194;3.800;2023-03-07T08:55:34;7.80;99.90
22779;DHT22;11556;51.194;3.800;2023-03-07T08:58:00;7.80;99.90
22779;DHT22;11556;51.194;3.800;2023-03-07T09:00:26;8.00;99.90
22779;DHT22;11556;51.194;3.800;2023-03-07T09:02:51;8.00;99.90
22779;DHT22;11556;51.194;3.800;2023-03-07T09:05:18;7.90;99.90
22779;DHT22;11556;51.194;3.800;2023-03-07T09:07:44;7.90;99.90
22779;DHT22;11556;51.194;3.800;2023-03-07T09:10:10;7.90;99.90
22779;DHT22;11556;51.194;3.800;2023-03-07T09:12:35;7.90;99.90
22779;DHT22;11556;51.194;3.800;2023-03-07T09:15:01;7.90;99.90
22779;DHT22;11556;51.194;3.800;2023-03-07T09:17:27;7.80;99.90
22779;DHT22;11556;51.194;3.800;2023-03-07T09:19:52;7.80;99.90
22779;DHT22;11556;51.194;3.800;2023-03-07T09:22:18;7.60;99.90
22779;DHT22;11556;51.194;3.800;2023-03-07T09:24:43;7.50;99.90
22779;DHT22;11556;51.194;3.800;2023-03-07T09:27:09;7.30;99.90
22779;DHT22;11556;51.194;3.800;2023-03-07T09:29:35;7.40;99.90
22779;DHT22;11556;51.194;3.800;2023-03-07T09:32:01;7.40;99.90
22779;DHT22;11556;51.194;3.800;2023-03-07T09:34:27;7.30;99.90
22779;DHT22;11556;51.194;3.800;2023-03-07T09:36:52;7.30;99.90
22779;DHT22;11556;51.194;3.800;2023-03-07T09:39:18;7.10;99.90
22779;DHT22;11556;51.194;3.800;2023-03-07T09:46:57;7.20;99.90
22779;DHT22;11556;51.194;3.800;2023-03-07T09:51:52;7.30;99.90
22779;DHT22;11556;51.194;3.800;2023-03-07T09:54:25;7.30;99.90
22779;DHT22;11556;51.194;3.800;2023-03-07T09:56:59;7.40;99.90
22779;DHT22;11556;51.194;3.800;2023-03-07T09:59:32;7.50;99.90
22779;DHT22;11556;51.194;3.800;2023-03-07T10:07:25;7.40;99.90
22779;DHT22;11556;51.194;3.800;2023-03-07T10:09:56;7.40;99.90
22779;DHT22;11556;51.194;3.800;2023-03-07T10:20:51;7.30;99.90
22779;DHT22;11556;51.194;3.800;2023-03-07T10:26:05;7.50;99.90
22779;DHT22;11556;51.194;3.800;2023-03-07T10:28:34;7.60;99.90
22779;DHT22;11556;51.194;3.800;2023-03-07T10:33:47;7.70;99.90
22779;DHT22;11556;51.194;3.800;2023-03-07T10:36:29;7.70;99.90
22779;DHT22;11556;51.194;3.800;2023-03-07T10:39:04;7.80;99.90
22779;DHT22;11556;51.194;3.800;2023-03-07T10:41:33;7.90;99.90
22779;DHT22;11556;51.194;3.800;2023-03-07T10:43:58;8.00;99.90
22779;DHT22;11556;51.194;3.800;2023-03-07T10:46:28;8.00;99.90
22779;DHT22;11556;51.194;3.800;2023-03-07T10:48:55;8.10;99.90
22779;DHT22;11556;51.194;3.800;2023-03-07T10:51:30;8.20;99.90
22779;DHT22;11556;51.194;3.800;2023-03-07T10:54:01;8.40;99.90
22779;DHT22;11556;51.194;3.800;2023-03-07T10:56:27;8.60;99.90
22779;DHT22;11556;51.194;3.800;2023-03-07T11:01:27;9.00;99.90
22779;DHT22;11556;51.194;3.800;2023-03-07T11:04:00;9.10;99.90
22779;DHT22;11556;51.194;3.800;2023-03-07T11:06:39;9.20;99.90
22779;DHT22;11556;51.194;3.800;2023-03-07T11:09:16;9.20;99.90
22779;DHT22;11556;51.194;3.800;2023-03-07T11:14:26;9.40;99.90
22779;DHT22;11556;51.194;3.800;2023-03-07T11:16:54;9.40;99.90
22779;DHT22;11556;51.194;3.800;2023-03-07T11:21:58;9.60;99.90
22779;DHT22;11556;51.194;3.800;2023-03-07T11:24:25;9.60;99.90
22779;DHT22;11556;51.194;3.800;2023-03-07T11:26:54;9.60;99.90
22779;DHT22;11556;51.194;3.800;2023-03-07T11:29:20;9.80;99.90
22779;DHT22;11556;51.194;3.800;2023-03-07T11:32:02;9.90;99.90
22779;DHT22;11556;51.194;3.800;2023-03-07T11:37:17;9.90;99.90
22779;DHT22;11556;51.194;3.800;2023-03-07T11:39:47;9.90;99.90
22779;DHT22;11556;51.194;3.800;2023-03-07T11:42:37;10.10;99.90
22779;DHT22;11556;51.194;3.800;2023-03-07T11:55:03;10.20;99.90
22779;DHT22;11556;51.194;3.800;2023-03-07T11:57:38;10.40;99.90
22779;DHT22;11556;51.194;3.800;2023-03-07T12:07:43;9.90;99.90
22779;DHT22;11556;51.194;3.800;2023-03-07T12:25:44;9.80;99.90
22779;DHT22;11556;51.194;3.800;2023-03-07T12:30:50;9.80;99.90
22779;DHT22;11556;51.194;3.800;2023-03-07T12:33:22;9.80;99.90
22779;DHT22;11556;51.194;3.800;2023-03-07T12:35:50;9.90;99.90
22779;DHT22;11556;51.194;3.800;2023-03-07T12:40:58;10.10;99.90
22779;DHT22;11556;51.194;3.800;2023-03-07T12:43:26;10.30;99.90
22779;DHT22;11556;51.194;3.800;2023-03-07T12:45:59;10.40;99.90
22779;DHT22;11556;51.194;3.800;2023-03-07T12:50:57;10.30;99.90
22779;DHT22;11556;51.194;3.800;2023-03-07T12:53:39;10.20;99.90
22779;DHT22;11556;51.194;3.800;2023-03-07T13:01:13;10.20;99.90
22779;DHT22;11556;51.194;3.800;2023-03-07T13:06:08;10.10;99.90
22779;DHT22;11556;51.194;3.800;2023-03-07T13:08:37;9.90;99.90
22779;DHT22;11556;51.194;3.800;2023-03-07T13:11:03;10.00;99.90
22779;DHT22;11556;51.194;3.800;2023-03-07T13:16:09;9.80;99.90
22779;DHT22;11556;51.194;3.800;2023-03-07T13:18:35;9.70;99.90
22779;DHT22;11556;51.194;3.800;2023-03-07T13:23:32;9.00;99.90
22779;DHT22;11556;51.194;3.800;2023-03-07T13:25:58;8.70;99.90
22779;DHT22;11556;51.194;3.800;2023-03-07T13:33:40;8.30;99.90
22779;DHT22;11556;51.194;3.800;2023-03-07T13:36:14;8.30;99.90
22779;DHT22;11556;51.194;3.800;2023-03-07T13:38:51;8.40;99.90
22779;DHT22;11556;51.194;3.800;2023-03-07T13:41:44;8.50;99.90
22779;DHT22;11556;51.194;3.800;2023-03-07T13:44:01;8.70;99.90
22779;DHT22;11556;51.194;3.800;2023-03-07T13:51:19;8.70;99.90
22779;DHT22;11556;51.194;3.800;2023-03-07T13:53:53;8.60;99.90
22779;DHT22;11556;51.194;3.800;2023-03-07T13:56:23;8.70;99.90
22779;DHT22;11556;51.194;3.800;2023-03-07T13:59:11;8.60;99.90
22779;DHT22;11556;51.194;3.800;2023-03-07T14:06:38;8.00;99.90
22779;DHT22;11556;51.194;3.800;2023-03-07T14:09:05;7.90;99.90
22779;DHT22;11556;51.194;3.800;2023-03-07T14:16:33;7.40;99.90
22779;DHT22;11556;51.194;3.800;2023-03-07T14:26:49;7.60;99.90
22779;DHT22;11556;51.194;3.800;2023-03-07T14:29:16;7.70;99.90
22779;DHT22;11556;51.194;3.800;2023-03-07T14:31:47;7.80;99.90
22779;DHT22;11556;51.194;3.800;2023-03-07T14:34:29;7.80;99.90
22779;DHT22;11556;51.194;3.800;2023-03-07T14:37:04;7.90;99.90
22779;DHT22;11556;51.194;3.800;2023-03-07T14:42:17;8.00;99.90
22779;DHT22;11556;51.194;3.800;2023-03-07T14:44:55;8.10;99.90
22779;DHT22;11556;51.194;3.800;2023-03-07T14:52:30;8.10;99.90
22779;DHT22;11556;51.194;3.800;2023-03-07T14:54:57;8.10;99.90
22779;DHT22;11556;51.194;3.800;2023-03-07T14:57:35;8.10;99.90
22779;DHT22;11556;51.194;3.800;2023-03-07T15:00:03;8.10;99.90
22779;DHT22;11556;51.194;3.800;2023-03-07T15:02:29;8.00;99.90
22779;DHT22;11556;51.194;3.800;2023-03-07T15:04:54;7.90;99.90
22779;DHT22;11556;51.194;3.800;2023-03-07T15:07:20;7.90;99.90
22779;DHT22;11556;51.194;3.800;2023-03-07T15:09:46;8.00;99.90
22779;DHT22;11556;51.194;3.800;2023-03-07T15:12:18;8.00;99.90
22779;DHT22;11556;51.194;3.800;2023-03-07T15:14:46;7.90;99.90
22779;DHT22;11556;51.194;3.800;2023-03-07T15:17:15;7.90;99.90
22779;DHT22;11556;51.194;3.800;2023-03-07T15:19:43;8.00;99.90
22779;DHT22;11556;51.194;3.800;2023-03-07T15:22:14;8.00;99.90
22779;DHT22;11556;51.194;3.800;2023-03-07T15:24:44;8.00;99.90
22779;DHT22;11556;51.194;3.800;2023-03-07T15:27:14;8.10;99.90
22779;DHT22;11556;51.194;3.800;2023-03-07T15:29:44;8.10;99.90
22779;DHT22;11556;51.194;3.800;2023-03-07T15:32:24;8.00;99.90
22779;DHT22;11556;51.194;3.800;2023-03-07T15:35:02;7.90;99.90
22779;DHT22;11556;51.194;3.800;2023-03-07T15:42:53;7.90;99.90
22779;DHT22;11556;51.194;3.800;2023-03-07T15:47:51;8.00;99.90
22779;DHT22;11556;51.194;3.800;2023-03-07T15:50:20;7.90;99.90
22779;DHT22;11556;51.194;3.800;2023-03-07T15:52:49;7.90;99.90
22779;DHT22;11556;51.194;3.800;2023-03-07T15:55:16;7.80;99.90
22779;DHT22;11556;51.194;3.800;2023-03-07T15:57:49;7.80;99.90
22779;DHT22;11556;51.194;3.800;2023-03-07T16:00:16;7.80;99.90
22779;DHT22;11556;51.194;3.800;2023-03-07T16:02:46;7.80;99.90
22779;DHT22;11556;51.194;3.800;2023-03-07T16:07:43;7.70;99.90
22779;DHT22;11556;51.194;3.800;2023-03-07T16:10:09;7.60;99.90
22779;DHT22;11556;51.194;3.800;2023-03-07T16:12:34;7.60;99.90
22779;DHT22;11556;51.194;3.800;2023-03-07T16:15:03;7.50;99.90
22779;DHT22;11556;51.194;3.800;2023-03-07T16:17:32;7.50;99.90
22779;DHT22;11556;51.194;3.800;2023-03-07T16:19:58;7.50;99.90
22779;DHT22;11556;51.194;3.800;2023-03-07T16:22:25;7.50;99.90
22779;DHT22;11556;51.194;3.800;2023-03-07T16:24:51;7.50;99.90
22779;DHT22;11556;51.194;3.800;2023-03-07T16:27:19;7.50;99.90
22779;DHT22;11556;51.194;3.800;2023-03-07T16:29:45;7.50;99.90
22779;DHT22;11556;51.194;3.800;2023-03-07T16:32:12;7.50;99.90
22779;DHT22;11556;51.194;3.800;2023-03-07T16:34:38;7.50;99.90
22779;DHT22;11556;51.194;3.800;2023-03-07T16:37:03;7.50;99.90
22779;DHT22;11556;51.194;3.800;2023-03-07T16:39:29;7.60;99.90
22779;DHT22;11556;51.194;3.800;2023-03-07T16:41:54;7.70;99.90
22779;DHT22;11556;51.194;3.800;2023-03-07T16:44:20;7.50;99.90
22779;DHT22;11556;51.194;3.800;2023-03-07T16:47:02;7.60;99.90
22779;DHT22;11556;51.194;3.800;2023-03-07T16:49:28;7.60;99.90
22779;DHT22;11556;51.194;3.800;2023-03-07T16:51:54;7.60;99.90
22779;DHT22;11556;51.194;3.800;2023-03-07T16:54:19;7.50;99.90
22779;DHT22;11556;51.194;3.800;2023-03-07T16:56:46;7.50;99.90
22779;DHT22;11556;51.194;3.800;2023-03-07T16:59:14;7.40;99.90
22779;DHT22;11556;51.194;3.800;2023-03-07T17:01:41;7.30;99.90
22779;DHT22;11556;51.194;3.800;2023-03-07T17:04:06;7.30;99.90
22779;DHT22;11556;51.194;3.800;2023-03-07T17:06:32;7.20;99.90
22779;DHT22;11556;51.194;3.800;2023-03-07T17:08:57;7.10;99.90
22779;DHT22;11556;51.194;3.800;2023-03-07T17:11:23;7.10;99.90
22779;DHT22;11556;51.194;3.800;2023-03-07T17:13:50;7.20;99.90
22779;DHT22;11556;51.194;3.800;2023-03-07T17:16:17;7.10;99.90
22779;DHT22;11556;51.194;3.800;2023-03-07T17:18:43;7.10;99.90
22779;DHT22;11556;51.194;3.800;2023-03-07T17:21:12;7.00;99.90
22779;DHT22;11556;51.194;3.800;2023-03-07T17:23:38;6.90;99.90
22779;DHT22;11556;51.194;3.800;2023-03-07T17:26:04;6.90;99.90
22779;DHT22;11556;51.194;3.800;2023-03-07T17:28:29;6.90;99.90
22779;DHT22;11556;51.194;3.800;2023-03-07T17:30:55;7.00;99.90
22779;DHT22;11556;51.194;3.800;2023-03-07T17:33:20;7.00;99.90
22779;DHT22;11556;51.194;3.800;2023-03-07T17:35:47;7.00;99.90
22779;DHT22;11556;51.194;3.800;2023-03-07T17:38:12;6.90;99.90
22779;DHT22;11556;51.194;3.800;2023-03-07T17:40:38;6.90;99.90
22779;DHT22;11556;51.194;3.800;2023-03-07T17:43:03;6.90;99.90
22779;DHT22;11556;51.194;3.800;2023-03-07T17:45:29;6.80;99.90
22779;DHT22;11556;51.194;3.800;2023-03-07T17:47:55;6.80;99.90
22779;DHT22;11556;51.194;3.800;2023-03-07T17:50:21;6.70;99.90
22779;DHT22;11556;51.194;3.800;2023-03-07T17:52:52;6.60;99.90
22779;DHT22;11556;51.194;3.800;2023-03-07T17:55:18;6.40;99.90
22779;DHT22;11556;51.194;3.800;2023-03-07T17:57:44;6.40;99.90
22779;DHT22;11556;51.194;3.800;2023-03-07T18:00:10;6.40;99.90
22779;DHT22;11556;51.194;3.800;2023-03-07T18:02:37;6.40;99.90
22779;DHT22;11556;51.194;3.800;2023-03-07T18:05:04;6.50;99.90
22779;DHT22;11556;51.194;3.800;2023-03-07T18:07:29;6.60;99.90
22779;DHT22;11556;51.194;3.800;2023-03-07T18:09:55;6.60;99.90
22779;DHT22;11556;51.194;3.800;2023-03-07T18:12:21;6.30;99.90